sensor_id;sensor_type;location;lat;lon;timestamp;pressure;altitude;pressure_sealevel;temperature;humidity
50430;BME280;36359;41.556;-8.418;2023-02-28T00:01:21;100551.16;;;7.88;49.69
50430;BME280;36359;41.556;-8.418;2023-02-28T00:03:48;100551.81;;;7.69;47.88
50430;BME280;36359;41.556;-8.418;2023-02-28T00:06:14;100549.75;;;7.62;47.99
50430;BME280;36359;41.556;-8.418;2023-02-28T00:08:39;100562.44;;;7.82;49.78
50430;BME280;36359;41.556;-8.418;2023-02-28T00:11:08;100569.69;;;7.93;50.68
50430;BME280;36359;41.556;-8.418;2023-02-28T00:13:35;100567.50;;;7.76;48.35
50430;BME280;36359;41.556;-8.418;2023-02-28T00:16:05;100578.22;;;7.43;49.59
50430;BME280;36359;41.556;-8.418;2023-02-28T00:18:31;100578.72;;;7.03;49.78
50430;BME280;36359;41.556;-8.418;2023-02-28T00:21:01;100578.34;;;6.86;50.79
50430;BME280;36359;41.556;-8.418;2023-02-28T00:23:27;100573.78;;;6.86;51.03
50430;BME280;36359;41.556;-8.418;2023-02-28T00:25:53;100579.56;;;7.60;55.22
50430;BME280;36359;41.556;-8.418;2023-02-28T00:28:19;100576.16;;;7.36;49.35
50430;BME280;36359;41.556;-8.418;2023-02-28T00:30:45;100578.94;;;7.12;51.91
50430;BME280;36359;41.556;-8.418;2023-02-28T00:33:11;100579.91;;;6.88;50.41
50430;BME280;36359;41.556;-8.418;2023-02-28T00:35:37;100586.91;;;6.79;50.54
50430;BME280;36359;41.556;-8.418;2023-02-28T00:38:03;100592.69;;;7.20;51.07
50430;BME280;36359;41.556;-8.418;2023-02-28T00:40:29;100583.38;;;7.46;52.19
50430;BME280;36359;41.556;-8.418;2023-02-28T00:42:55;100593.41;;;7.67;50.19
50430;BME280;36359;41.556;-8.418;2023-02-28T00:45:20;100596.47;;;7.85;54.66
50430;BME280;36359;41.556;-8.418;2023-02-28T00:47:46;100590.78;;;7.99;48.64
50430;BME280;36359;41.556;-8.418;2023-02-28T00:50:17;100601.50;;;7.78;49.80
50430;BME280;36359;41.556;-8.418;2023-02-28T00:52:44;100602.44;;;8.00;50.23
50430;BME280;36359;41.556;-8.418;2023-02-28T00:55:10;100599.28;;;7.94;50.67
50430;BME280;36359;41.556;-8.418;2023-02-28T00:57:36;100592.06;;;7.84;47.87
50430;BME280;36359;41.556;-8.418;2023-02-28T01:00:03;100598.81;;;7.67;50.52
50430;BME280;36359;41.556;-8.418;2023-02-28T01:02:30;100607.66;;;7.35;49.52
50430;BME280;36359;41.556;-8.418;2023-02-28T01:04:55;100613.06;;;7.13;52.23
50430;BME280;36359;41.556;-8.418;2023-02-28T01:07:22;100604.00;;;7.25;51.94
50430;BME280;36359;41.556;-8.418;2023-02-28T01:09:48;100605.44;;;6.95;52.24
50430;BME280;36359;41.556;-8.418;2023-02-28T01:12:14;100604.03;;;6.78;51.71
50430;BME280;36359;41.556;-8.418;2023-02-28T01:14:40;100600.50;;;6.78;52.73
50430;BME280;36359;41.556;-8.418;2023-02-28T01:17:05;100607.13;;;6.85;53.13
50430;BME280;36359;41.556;-8.418;2023-02-28T01:19:32;100607.50;;;6.80;51.72
50430;BME280;36359;41.556;-8.418;2023-02-28T01:22:04;100598.78;;;6.77;51.17
50430;BME280;36359;41.556;-8.418;2023-02-28T01:24:30;100604.41;;;6.74;52.25
50430;BME280;36359;41.556;-8.418;2023-02-28T01:26:56;100602.63;;;6.62;52.37
50430;BME280;36359;41.556;-8.418;2023-02-28T01:29:22;100595.41;;;6.51;53.34
50430;BME280;36359;41.556;-8.418;2023-02-28T01:31:47;100598.03;;;6.40;53.11
50430;BME280;36359;41.556;-8.418;2023-02-28T01:34:13;100609.00;;;7.07;53.30
50430;BME280;36359;41.556;-8.418;2023-02-28T01:36:39;100610.63;;;7.55;52.67
50430;BME280;36359;41.556;-8.418;2023-02-28T01:39:05;100612.03;;;8.04;51.98
50430;BME280;36359;41.556;-8.418;2023-02-28T01:41:32;100611.03;;;8.05;53.99
50430;BME280;36359;41.556;-8.418;2023-02-28T01:46:35;100620.75;;;8.07;50.81
50430;BME280;36359;41.556;-8.418;2023-02-28T01:49:12;100618.44;;;8.35;51.83
50430;BME280;36359;41.556;-8.418;2023-02-28T01:51:47;100640.50;;;8.83;52.24
50430;BME280;36359;41.556;-8.418;2023-02-28T01:54:22;100637.03;;;8.17;48.38
50430;BME280;36359;41.556;-8.418;2023-02-28T01:57:16;100646.34;;;7.58;48.69
50430;BME280;36359;41.556;-8.418;2023-02-28T01:59:48;100638.34;;;7.34;51.43
50430;BME280;36359;41.556;-8.418;2023-02-28T02:02:18;100644.44;;;7.02;51.64
50430;BME280;36359;41.556;-8.418;2023-02-28T02:05:00;100641.31;;;6.49;51.81
50430;BME280;36359;41.556;-8.418;2023-02-28T02:07:37;100631.81;;;6.56;53.59
50430;BME280;36359;41.556;-8.418;2023-02-28T02:18:38;100650.34;;;6.37;53.69
50430;BME280;36359;41.556;-8.418;2023-02-28T02:35:55;100682.91;;;6.34;53.67
50430;BME280;36359;41.556;-8.418;2023-02-28T02:46:48;100701.78;;;6.34;55.83
50430;BME280;36359;41.556;-8.418;2023-02-28T02:49:22;100695.38;;;6.24;53.52
50430;BME280;36359;41.556;-8.418;2023-02-28T02:54:28;100702.75;;;6.57;54.44
50430;BME280;36359;41.556;-8.418;2023-02-28T02:57:12;100698.50;;;6.90;55.15
50430;BME280;36359;41.556;-8.418;2023-02-28T02:59:42;100703.63;;;6.57;54.76
50430;BME280;36359;41.556;-8.418;2023-02-28T03:02:11;100697.75;;;6.64;53.00
50430;BME280;36359;41.556;-8.418;2023-02-28T03:04:51;100689.38;;;6.55;52.43
50430;BME280;36359;41.556;-8.418;2023-02-28T03:07:20;100696.22;;;6.24;53.89
50430;BME280;36359;41.556;-8.418;2023-02-28T03:09:53;100697.84;;;6.27;53.92
50430;BME280;36359;41.556;-8.418;2023-02-28T03:12:20;100688.00;;;6.26;53.62
50430;BME280;36359;41.556;-8.418;2023-02-28T03:15:13;100687.25;;;6.72;56.92
50430;BME280;36359;41.556;-8.418;2023-02-28T03:18:08;100690.47;;;6.53;53.18
50430;BME280;36359;41.556;-8.418;2023-02-28T03:21:02;100679.75;;;6.16;53.73
50430;BME280;36359;41.556;-8.418;2023-02-28T03:23:38;100687.03;;;5.77;53.96
50430;BME280;36359;41.556;-8.418;2023-02-28T03:26:13;100688.56;;;5.56;54.88
50430;BME280;36359;41.556;-8.418;2023-02-28T03:31:21;100683.72;;;5.48;53.67
50430;BME280;36359;41.556;-8.418;2023-02-28T03:33:55;100682.00;;;5.47;53.47
50430;BME280;36359;41.556;-8.418;2023-02-28T03:36:29;100685.34;;;5.51;52.74
50430;BME280;36359;41.556;-8.418;2023-02-28T03:39:04;100679.47;;;5.82;53.67
50430;BME280;36359;41.556;-8.418;2023-02-28T03:41:36;100684.00;;;6.55;51.51
50430;BME280;36359;41.556;-8.418;2023-02-28T03:44:11;100673.22;;;6.55;50.96
50430;BME280;36359;41.556;-8.418;2023-02-28T03:46:46;100677.97;;;6.52;50.04
50430;BME280;36359;41.556;-8.418;2023-02-28T03:49:15;100669.44;;;6.34;52.31
50430;BME280;36359;41.556;-8.418;2023-02-28T03:51:43;100674.72;;;5.99;50.69
50430;BME280;36359;41.556;-8.418;2023-02-28T03:54:15;100680.47;;;5.56;50.53
50430;BME280;36359;41.556;-8.418;2023-02-28T03:56:51;100685.28;;;5.89;50.70
50430;BME280;36359;41.556;-8.418;2023-02-28T03:59:28;100669.44;;;6.34;50.13
50430;BME280;36359;41.556;-8.418;2023-02-28T04:01:57;100671.28;;;6.33;49.86
50430;BME280;36359;41.556;-8.418;2023-02-28T04:04:23;100667.81;;;6.07;50.91
50430;BME280;36359;41.556;-8.418;2023-02-28T04:06:51;100669.13;;;6.02;50.59
50430;BME280;36359;41.556;-8.418;2023-02-28T04:09:17;100665.69;;;5.87;49.93
50430;BME280;36359;41.556;-8.418;2023-02-28T04:11:50;100670.13;;;5.75;51.42
50430;BME280;36359;41.556;-8.418;2023-02-28T04:14:21;100678.88;;;5.66;50.68
50430;BME280;36359;41.556;-8.418;2023-02-28T04:16:47;100685.28;;;6.02;50.02
50430;BME280;36359;41.556;-8.418;2023-02-28T04:19:13;100690.13;;;5.97;48.62
50430;BME280;36359;41.556;-8.418;2023-02-28T04:21:45;100692.84;;;5.97;48.15
50430;BME280;36359;41.556;-8.418;2023-02-28T04:24:14;100689.78;;;6.38;49.46
50430;BME280;36359;41.556;-8.418;2023-02-28T04:26:42;100685.31;;;7.20;50.87
50430;BME280;36359;41.556;-8.418;2023-02-28T04:29:09;100698.63;;;6.99;46.26
50430;BME280;36359;41.556;-8.418;2023-02-28T04:31:35;100696.91;;;7.79;47.48
50430;BME280;36359;41.556;-8.418;2023-02-28T04:34:02;100703.13;;;7.23;45.62
50430;BME280;36359;41.556;-8.418;2023-02-28T04:36:28;100701.59;;;6.72;46.83
50430;BME280;36359;41.556;-8.418;2023-02-28T04:38:54;100712.38;;;6.24;48.51
50430;BME280;36359;41.556;-8.418;2023-02-28T04:41:20;100705.25;;;5.74;47.46
50430;BME280;36359;41.556;-8.418;2023-02-28T04:43:47;100701.16;;;5.17;50.84
50430;BME280;36359;41.556;-8.418;2023-02-28T04:46:12;100707.72;;;5.77;54.68
50430;BME280;36359;41.556;-8.418;2023-02-28T04:48:39;100708.44;;;5.79;49.87
50430;BME280;36359;41.556;-8.418;2023-02-28T04:51:08;100713.53;;;5.83;50.29
50430;BME280;36359;41.556;-8.418;2023-02-28T04:53:35;100712.75;;;5.81;50.90
50430;BME280;36359;41.556;-8.418;2023-02-28T04:56:01;100703.44;;;5.49;48.91
50430;BME280;36359;41.556;-8.418;2023-02-28T04:58:27;100717.84;;;5.86;50.80
50430;BME280;36359;41.556;-8.418;2023-02-28T05:00:53;100720.09;;;5.79;48.91
50430;BME280;36359;41.556;-8.418;2023-02-28T05:03:20;100719.16;;;6.30;49.35
50430;BME280;36359;41.556;-8.418;2023-02-28T05:05:47;100713.00;;;6.76;54.52
50430;BME280;36359;41.556;-8.418;2023-02-28T05:08:13;100722.66;;;6.43;47.31
50430;BME280;36359;41.556;-8.418;2023-02-28T05:10:39;100729.59;;;6.34;46.88
50430;BME280;36359;41.556;-8.418;2023-02-28T05:13:04;100734.88;;;6.60;46.54
50430;BME280;36359;41.556;-8.418;2023-02-28T05:15:30;100736.59;;;6.37;45.96
50430;BME280;36359;41.556;-8.418;2023-02-28T05:17:56;100726.25;;;6.79;49.16
50430;BME280;36359;41.556;-8.418;2023-02-28T05:20:21;100729.69;;;7.05;46.39
50430;BME280;36359;41.556;-8.418;2023-02-28T05:25:21;100729.25;;;6.63;44.65
50430;BME280;36359;41.556;-8.418;2023-02-28T05:27:48;100734.09;;;6.71;48.06
50430;BME280;36359;41.556;-8.418;2023-02-28T05:30:14;100738.38;;;6.49;45.52
50430;BME280;36359;41.556;-8.418;2023-02-28T05:32:41;100740.44;;;6.70;50.19
50430;BME280;36359;41.556;-8.418;2023-02-28T05:35:10;100748.22;;;7.10;48.97
50430;BME280;36359;41.556;-8.418;2023-02-28T05:37:38;100751.78;;;7.10;47.30
50430;BME280;36359;41.556;-8.418;2023-02-28T05:40:05;100760.22;;;7.05;48.55
50430;BME280;36359;41.556;-8.418;2023-02-28T05:42:37;100768.34;;;7.17;46.18
50430;BME280;36359;41.556;-8.418;2023-02-28T05:45:04;100768.97;;;6.85;45.16
50430;BME280;36359;41.556;-8.418;2023-02-28T05:47:30;100770.03;;;7.42;50.86
50430;BME280;36359;41.556;-8.418;2023-02-28T05:49:55;100777.31;;;7.17;48.56
50430;BME280;36359;41.556;-8.418;2023-02-28T05:52:21;100777.09;;;6.96;49.20
50430;BME280;36359;41.556;-8.418;2023-02-28T05:54:47;100789.69;;;6.11;47.55
50430;BME280;36359;41.556;-8.418;2023-02-28T05:57:13;100781.38;;;5.76;48.86
50430;BME280;36359;41.556;-8.418;2023-02-28T05:59:38;100793.16;;;5.09;50.90
50430;BME280;36359;41.556;-8.418;2023-02-28T06:02:06;100798.72;;;4.79;52.07
50430;BME280;36359;41.556;-8.418;2023-02-28T06:04:36;100800.97;;;4.72;52.11
50430;BME280;36359;41.556;-8.418;2023-02-28T06:07:01;100803.38;;;4.36;53.09
50430;BME280;36359;41.556;-8.418;2023-02-28T06:09:27;100811.91;;;4.42;52.42
50430;BME280;36359;41.556;-8.418;2023-02-28T06:11:53;100814.97;;;4.77;52.55
50430;BME280;36359;41.556;-8.418;2023-02-28T06:14:22;100812.31;;;4.63;52.56
50430;BME280;36359;41.556;-8.418;2023-02-28T06:16:48;100818.84;;;4.03;54.33
50430;BME280;36359;41.556;-8.418;2023-02-28T06:19:14;100816.44;;;4.13;54.56
50430;BME280;36359;41.556;-8.418;2023-02-28T06:21:40;100828.44;;;4.63;56.42
50430;BME280;36359;41.556;-8.418;2023-02-28T06:24:06;100826.53;;;6.10;54.60
50430;BME280;36359;41.556;-8.418;2023-02-28T06:26:33;100837.41;;;6.22;53.58
50430;BME280;36359;41.556;-8.418;2023-02-28T06:28:59;100841.09;;;6.08;51.55
50430;BME280;36359;41.556;-8.418;2023-02-28T06:31:26;100854.44;;;6.22;52.64
50430;BME280;36359;41.556;-8.418;2023-02-28T06:33:54;100849.84;;;5.59;51.13
50430;BME280;36359;41.556;-8.418;2023-02-28T06:36:21;100844.44;;;5.46;50.85
50430;BME280;36359;41.556;-8.418;2023-02-28T06:38:46;100841.84;;;5.32;51.82
50430;BME280;36359;41.556;-8.418;2023-02-28T06:41:17;100835.72;;;5.30;52.84
50430;BME280;36359;41.556;-8.418;2023-02-28T06:43:43;100851.91;;;5.15;52.21
50430;BME280;36359;41.556;-8.418;2023-02-28T06:46:12;100846.66;;;4.99;52.76
50430;BME280;36359;41.556;-8.418;2023-02-28T06:48:39;100854.69;;;5.14;52.62
50430;BME280;36359;41.556;-8.418;2023-02-28T06:53:32;100869.38;;;5.62;52.07
50430;BME280;36359;41.556;-8.418;2023-02-28T06:55:58;100877.75;;;5.70;56.47
50430;BME280;36359;41.556;-8.418;2023-02-28T06:58:24;100869.75;;;6.22;55.21
50430;BME280;36359;41.556;-8.418;2023-02-28T07:00:52;100884.06;;;6.97;53.68
50430;BME280;36359;41.556;-8.418;2023-02-28T07:03:18;100885.09;;;7.08;51.98
50430;BME280;36359;41.556;-8.418;2023-02-28T07:05:44;100881.78;;;7.28;50.17
50430;BME280;36359;41.556;-8.418;2023-02-28T07:08:10;100880.13;;;6.65;50.25
50430;BME280;36359;41.556;-8.418;2023-02-28T07:10:37;100877.28;;;6.29;49.10
50430;BME280;36359;41.556;-8.418;2023-02-28T07:13:04;100881.44;;;5.69;50.77
50430;BME280;36359;41.556;-8.418;2023-02-28T07:15:32;100882.47;;;5.54;53.87
50430;BME280;36359;41.556;-8.418;2023-02-28T07:17:58;100877.31;;;5.51;53.74
50430;BME280;36359;41.556;-8.418;2023-02-28T07:20:24;100890.34;;;6.35;55.44
50430;BME280;36359;41.556;-8.418;2023-02-28T07:22:50;100892.19;;;6.85;53.55
50430;BME280;36359;41.556;-8.418;2023-02-28T07:25:28;100900.59;;;7.17;52.52
50430;BME280;36359;41.556;-8.418;2023-02-28T07:27:55;100892.66;;;7.02;52.36
50430;BME280;36359;41.556;-8.418;2023-02-28T07:30:21;100905.69;;;7.09;51.77
50430;BME280;36359;41.556;-8.418;2023-02-28T07:32:47;100908.72;;;6.80;51.15
50430;BME280;36359;41.556;-8.418;2023-02-28T07:35:13;100916.94;;;6.66;49.86
50430;BME280;36359;41.556;-8.418;2023-02-28T07:37:41;100915.69;;;6.33;49.53
50430;BME280;36359;41.556;-8.418;2023-02-28T07:40:10;100923.22;;;6.53;54.42
50430;BME280;36359;41.556;-8.418;2023-02-28T07:42:40;100923.19;;;7.40;52.35
50430;BME280;36359;41.556;-8.418;2023-02-28T07:45:10;100931.19;;;6.68;49.62
50430;BME280;36359;41.556;-8.418;2023-02-28T07:47:38;100926.03;;;6.39;49.64
50430;BME280;36359;41.556;-8.418;2023-02-28T07:50:06;100935.41;;;5.81;49.45
50430;BME280;36359;41.556;-8.418;2023-02-28T07:52:32;100932.13;;;6.03;53.57
50430;BME280;36359;41.556;-8.418;2023-02-28T07:54:57;100940.41;;;6.89;54.05
50430;BME280;36359;41.556;-8.418;2023-02-28T07:57:23;100944.16;;;7.36;53.18
50430;BME280;36359;41.556;-8.418;2023-02-28T07:59:49;100951.25;;;7.37;49.22
50430;BME280;36359;41.556;-8.418;2023-02-28T08:02:16;100951.16;;;7.15;51.68
50430;BME280;36359;41.556;-8.418;2023-02-28T08:04:42;100945.41;;;6.57;49.95
50430;BME280;36359;41.556;-8.418;2023-02-28T08:07:08;100947.38;;;6.42;50.63
50430;BME280;36359;41.556;-8.418;2023-02-28T08:09:39;100951.78;;;6.69;50.86
50430;BME280;36359;41.556;-8.418;2023-02-28T08:12:07;100956.09;;;7.21;54.04
50430;BME280;36359;41.556;-8.418;2023-02-28T08:14:36;100955.16;;;6.96;52.59
50430;BME280;36359;41.556;-8.418;2023-02-28T08:17:04;100967.44;;;7.13;50.96
50430;BME280;36359;41.556;-8.418;2023-02-28T08:19:30;100966.44;;;7.27;51.43
50430;BME280;36359;41.556;-8.418;2023-02-28T08:21:58;100964.59;;;6.14;48.24
50430;BME280;36359;41.556;-8.418;2023-02-28T08:24:25;100975.28;;;6.28;54.79
50430;BME280;36359;41.556;-8.418;2023-02-28T08:26:52;100978.66;;;6.45;52.49
50430;BME280;36359;41.556;-8.418;2023-02-28T08:29:18;100980.56;;;6.55;51.70
50430;BME280;36359;41.556;-8.418;2023-02-28T08:31:44;100981.44;;;6.69;47.58
50430;BME280;36359;41.556;-8.418;2023-02-28T08:34:12;100987.50;;;5.94;49.23
50430;BME280;36359;41.556;-8.418;2023-02-28T08:36:39;100986.44;;;5.15;51.15
50430;BME280;36359;41.556;-8.418;2023-02-28T08:39:07;100991.44;;;4.93;52.46
50430;BME280;36359;41.556;-8.418;2023-02-28T08:41:33;100983.56;;;4.75;52.84
50430;BME280;36359;41.556;-8.418;2023-02-28T08:43:59;100986.97;;;5.20;53.43
50430;BME280;36359;41.556;-8.418;2023-02-28T08:46:25;100986.34;;;5.71;54.43
50430;BME280;36359;41.556;-8.418;2023-02-28T08:48:55;100989.41;;;6.19;50.96
50430;BME280;36359;41.556;-8.418;2023-02-28T08:51:24;100994.78;;;6.32;51.70
50430;BME280;36359;41.556;-8.418;2023-02-28T08:53:55;100996.75;;;6.43;50.95
50430;BME280;36359;41.556;-8.418;2023-02-28T08:56:30;100947.59;;;6.39;53.46
50430;BME280;36359;41.556;-8.418;2023-02-28T08:58:59;100955.66;;;6.13;51.18
50430;BME280;36359;41.556;-8.418;2023-02-28T09:01:28;100956.09;;;6.71;51.91
50430;BME280;36359;41.556;-8.418;2023-02-28T09:04:04;100927.69;;;6.91;50.74
50430;BME280;36359;41.556;-8.418;2023-02-28T09:06:33;100946.25;;;7.20;50.96
50430;BME280;36359;41.556;-8.418;2023-02-28T09:08:59;100952.81;;;7.28;49.78
50430;BME280;36359;41.556;-8.418;2023-02-28T09:11:27;100959.41;;;7.24;48.69
50430;BME280;36359;41.556;-8.418;2023-02-28T09:13:53;101001.72;;;7.61;49.54
50430;BME280;36359;41.556;-8.418;2023-02-28T09:16:21;100920.19;;;7.32;51.36
50430;BME280;36359;41.556;-8.418;2023-02-28T09:18:56;100926.25;;;8.06;47.81
50430;BME280;36359;41.556;-8.418;2023-02-28T09:21:25;100928.56;;;8.57;49.38
50430;BME280;36359;41.556;-8.418;2023-02-28T09:23:52;100949.59;;;8.64;50.01
50430;BME280;36359;41.556;-8.418;2023-02-28T09:26:20;100923.88;;;8.81;47.58
50430;BME280;36359;41.556;-8.418;2023-02-28T09:28:47;100944.53;;;9.16;46.97
50430;BME280;36359;41.556;-8.418;2023-02-28T09:31:19;100987.44;;;9.32;45.25
50430;BME280;36359;41.556;-8.418;2023-02-28T09:33:54;100961.88;;;9.14;44.49
50430;BME280;36359;41.556;-8.418;2023-02-28T09:36:22;100970.22;;;9.44;46.96
50430;BME280;36359;41.556;-8.418;2023-02-28T09:38:48;100965.44;;;9.03;45.76
50430;BME280;36359;41.556;-8.418;2023-02-28T09:41:21;100997.91;;;9.37;40.58
50430;BME280;36359;41.556;-8.418;2023-02-28T09:43:51;100983.06;;;8.97;41.59
50430;BME280;36359;41.556;-8.418;2023-02-28T09:48:52;100980.81;;;8.46;41.67
50430;BME280;36359;41.556;-8.418;2023-02-28T09:54:02;100966.22;;;8.71;42.39
50430;BME280;36359;41.556;-8.418;2023-02-28T09:56:40;100975.47;;;9.46;42.03
50430;BME280;36359;41.556;-8.418;2023-02-28T09:59:30;100992.81;;;9.54;45.55
50430;BME280;36359;41.556;-8.418;2023-02-28T10:05:02;100920.19;;;9.05;42.86
50430;BME280;36359;41.556;-8.418;2023-02-28T10:08:06;100917.88;;;8.78;39.95
50430;BME280;36359;41.556;-8.418;2023-02-28T10:10:48;100981.69;;;9.03;41.30
50430;BME280;36359;41.556;-8.418;2023-02-28T10:13:26;100943.78;;;9.03;41.50
50430;BME280;36359;41.556;-8.418;2023-02-28T10:16:01;100965.47;;;9.90;45.36
50430;BME280;36359;41.556;-8.418;2023-02-28T10:18:35;100994.09;;;10.15;43.71
50430;BME280;36359;41.556;-8.418;2023-02-28T10:21:05;100980.41;;;9.84;42.04
50430;BME280;36359;41.556;-8.418;2023-02-28T10:23:34;100984.94;;;9.95;41.87
50430;BME280;36359;41.556;-8.418;2023-02-28T10:26:14;100988.16;;;9.45;39.74
50430;BME280;36359;41.556;-8.418;2023-02-28T10:28:44;100984.63;;;9.11;40.15
50430;BME280;36359;41.556;-8.418;2023-02-28T10:31:20;100984.09;;;9.51;41.23
50430;BME280;36359;41.556;-8.418;2023-02-28T10:33:48;100986.03;;;9.60;39.60
50430;BME280;36359;41.556;-8.418;2023-02-28T10:36:21;100981.06;;;9.76;41.12
50430;BME280;36359;41.556;-8.418;2023-02-28T10:38:48;100974.38;;;9.81;45.29
50430;BME280;36359;41.556;-8.418;2023-02-28T10:41:34;100974.38;;;9.37;39.52
50430;BME280;36359;41.556;-8.418;2023-02-28T10:44:23;100983.59;;;9.46;39.85
50430;BME280;36359;41.556;-8.418;2023-02-28T10:46:49;100974.84;;;9.53;40.30
50430;BME280;36359;41.556;-8.418;2023-02-28T10:51:50;100982.63;;;10.11;40.00
50430;BME280;36359;41.556;-8.418;2023-02-28T10:54:30;100977.00;;;10.03;39.43
50430;BME280;36359;41.556;-8.418;2023-02-28T10:57:16;100971.06;;;10.09;43.30
50430;BME280;36359;41.556;-8.418;2023-02-28T10:59:43;100972.22;;;9.63;38.71
50430;BME280;36359;41.556;-8.418;2023-02-28T11:02:29;100967.41;;;10.20;37.98
50430;BME280;36359;41.556;-8.418;2023-02-28T11:04:56;100952.47;;;10.26;40.09
50430;BME280;36359;41.556;-8.418;2023-02-28T11:07:25;100958.16;;;10.22;39.00
50430;BME280;36359;41.556;-8.418;2023-02-28T11:09:52;100951.63;;;10.04;39.66
50430;BME280;36359;41.556;-8.418;2023-02-28T11:12:23;100955.28;;;10.35;39.18
50430;BME280;36359;41.556;-8.418;2023-02-28T11:14:54;100949.72;;;10.37;37.86
50430;BME280;36359;41.556;-8.418;2023-02-28T11:17:27;100959.81;;;10.77;38.66
50430;BME280;36359;41.556;-8.418;2023-02-28T11:20:18;100955.16;;;11.48;39.71
50430;BME280;36359;41.556;-8.418;2023-02-28T11:22:47;100954.69;;;11.24;39.54
50430;BME280;36359;41.556;-8.418;2023-02-28T11:25:22;100942.63;;;10.76;37.48
50430;BME280;36359;41.556;-8.418;2023-02-28T11:27:53;100948.00;;;10.36;36.84
50430;BME280;36359;41.556;-8.418;2023-02-28T11:33:47;100937.59;;;11.02;38.54
50430;BME280;36359;41.556;-8.418;2023-02-28T11:36:33;100948.22;;;10.75;36.60
50430;BME280;36359;41.556;-8.418;2023-02-28T11:39:03;100935.28;;;10.57;35.62
50430;BME280;36359;41.556;-8.418;2023-02-28T11:53:17;100943.03;;;11.02;35.94
50430;BME280;36359;41.556;-8.418;2023-02-28T11:55:52;100933.16;;;10.91;34.99
50430;BME280;36359;41.556;-8.418;2023-02-28T12:12:15;100912.91;;;12.79;34.21
50430;BME280;36359;41.556;-8.418;2023-02-28T12:18:18;100912.66;;;11.76;33.51
50430;BME280;36359;41.556;-8.418;2023-02-28T12:26:41;100892.50;;;12.18;35.33
50430;BME280;36359;41.556;-8.418;2023-02-28T12:29:30;100894.25;;;11.80;33.52
50430;BME280;36359;41.556;-8.418;2023-02-28T12:32:06;100888.41;;;11.94;34.42
50430;BME280;36359;41.556;-8.418;2023-02-28T12:34:36;100887.34;;;11.76;33.20
50430;BME280;36359;41.556;-8.418;2023-02-28T12:37:08;100880.50;;;11.72;32.99
50430;BME280;36359;41.556;-8.418;2023-02-28T12:39:45;100861.31;;;11.83;35.02
50430;BME280;36359;41.556;-8.418;2023-02-28T12:42:38;100868.78;;;12.00;33.81
50430;BME280;36359;41.556;-8.418;2023-02-28T12:47:30;100855.31;;;11.70;35.61
50430;BME280;36359;41.556;-8.418;2023-02-28T12:50:05;100855.81;;;12.22;35.42
50430;BME280;36359;41.556;-8.418;2023-02-28T12:52:53;100848.31;;;11.87;36.98
50430;BME280;36359;41.556;-8.418;2023-02-28T13:03:27;100832.13;;;12.42;36.69
50430;BME280;36359;41.556;-8.418;2023-02-28T13:06:34;100817.88;;;12.58;36.00
50430;BME280;36359;41.556;-8.418;2023-02-28T13:09:13;100815.31;;;13.02;36.75
50430;BME280;36359;41.556;-8.418;2023-02-28T13:11:46;100820.00;;;13.09;35.30
50430;BME280;36359;41.556;-8.418;2023-02-28T13:14:28;100812.28;;;12.59;33.49
50430;BME280;36359;41.556;-8.418;2023-02-28T13:19:33;100801.44;;;12.77;33.39
50430;BME280;36359;41.556;-8.418;2023-02-28T13:22:00;100800.22;;;12.34;32.61
50430;BME280;36359;41.556;-8.418;2023-02-28T13:24:43;100793.78;;;12.63;33.88
50430;BME280;36359;41.556;-8.418;2023-02-28T13:29:40;100785.97;;;13.13;32.74
50430;BME280;36359;41.556;-8.418;2023-02-28T13:47:51;100758.84;;;12.76;33.38
50430;BME280;36359;41.556;-8.418;2023-02-28T14:06:31;100736.00;;;12.69;32.67
50430;BME280;36359;41.556;-8.418;2023-02-28T14:11:45;100729.94;;;12.93;33.22
50430;BME280;36359;41.556;-8.418;2023-02-28T14:17:04;100716.13;;;13.48;38.54
50430;BME280;36359;41.556;-8.418;2023-02-28T14:19:32;100722.06;;;13.70;33.22
50430;BME280;36359;41.556;-8.418;2023-02-28T14:30:43;100716.22;;;13.21;32.62
50430;BME280;36359;41.556;-8.418;2023-02-28T14:33:31;100724.66;;;13.09;32.16
50430;BME280;36359;41.556;-8.418;2023-02-28T14:38:33;100707.69;;;14.70;36.50
50430;BME280;36359;41.556;-8.418;2023-02-28T14:41:04;100697.63;;;14.71;37.70
50430;BME280;36359;41.556;-8.418;2023-02-28T14:43:48;100691.97;;;14.64;34.24
50430;BME280;36359;41.556;-8.418;2023-02-28T14:46:14;100707.00;;;14.26;32.30
50430;BME280;36359;41.556;-8.418;2023-02-28T14:48:45;100706.34;;;14.91;33.46
50430;BME280;36359;41.556;-8.418;2023-02-28T14:51:12;100699.41;;;14.46;33.79
50430;BME280;36359;41.556;-8.418;2023-02-28T14:53:43;100699.69;;;14.77;36.41
50430;BME280;36359;41.556;-8.418;2023-02-28T14:58:54;100684.44;;;15.81;36.60
50430;BME280;36359;41.556;-8.418;2023-02-28T15:01:22;100688.06;;;15.73;33.96
50430;BME280;36359;41.556;-8.418;2023-02-28T15:03:48;100684.50;;;14.99;32.42
50430;BME280;36359;41.556;-8.418;2023-02-28T15:06:22;100675.63;;;14.89;32.66
50430;BME280;36359;41.556;-8.418;2023-02-28T15:09:06;100674.59;;;14.82;34.52
50430;BME280;36359;41.556;-8.418;2023-02-28T15:11:37;100675.13;;;15.02;38.37
50430;BME280;36359;41.556;-8.418;2023-02-28T15:14:04;100674.97;;;14.95;35.05
50430;BME280;36359;41.556;-8.418;2023-02-28T15:16:39;100681.28;;;14.37;33.40
50430;BME280;36359;41.556;-8.418;2023-02-28T15:19:08;100681.31;;;14.45;33.18
50430;BME280;36359;41.556;-8.418;2023-02-28T15:21:43;100674.44;;;14.24;36.52
50430;BME280;36359;41.556;-8.418;2023-02-28T15:24:21;100673.28;;;13.93;33.27
50430;BME280;36359;41.556;-8.418;2023-02-28T15:26:57;100665.94;;;14.36;41.91
50430;BME280;36359;41.556;-8.418;2023-02-28T15:29:25;100664.41;;;14.33;35.40
50430;BME280;36359;41.556;-8.418;2023-02-28T15:32:00;100655.91;;;14.44;34.88
50430;BME280;36359;41.556;-8.418;2023-02-28T15:34:40;100664.84;;;14.20;37.82
50430;BME280;36359;41.556;-8.418;2023-02-28T15:39:53;100661.38;;;14.02;34.15
50430;BME280;36359;41.556;-8.418;2023-02-28T15:42:21;100641.44;;;14.52;40.59
50430;BME280;36359;41.556;-8.418;2023-02-28T15:44:48;100645.47;;;14.40;36.57
50430;BME280;36359;41.556;-8.418;2023-02-28T15:52:16;100628.31;;;14.05;40.04